• Join FlightAware (Why Join?)
  • Login
  • US Flag 
02:12AM EDT


 

Airport Tracker/Info


-or-


 

Live Flight TrackerFlight Track Log ✈ UAL4849 ✈ 21-Apr-2013 ✈ KBWI - KCLE

Flight Track Log - Related Links

Times and Time Zones

All times are in EDT time to prevent confusion due to time zone crossing. See the UAL4849 flight status page for this flight to view local times or setup timezone preferences in your user account.

Time Position Orientation Groundspeed Altitude Reporting Facility
EDT Latitude Longitude Course Direction KTS MPH feet Rate Location/Type
02:19PM 39.1833 -76.7167 322° Northwest 146 168 1,600  Level Potomac TRACON
02:20PM 39.2167 -76.7500 322° Northwest 152 175 3,400 1,560 Climbing Potomac TRACON
02:21PM 39.2500 -76.7833 322° Northwest 162 186 4,800 1,380 Climbing Potomac TRACON
02:22PM 39.2833 -76.8333 311° West 172 198 6,300 1,440 Climbing Potomac TRACON
02:23PM 39.2833 -76.9000 270° West 170 196 7,800 1,320 Climbing Potomac TRACON
02:25PM 39.3033 -76.9864 287° West 172 198 9,800 1,260 Climbing Washington Center
02:26PM 39.3172 -77.0456 287° West 172 198 11,200 1,320 Climbing Washington Center
02:27PM 39.3353 -77.0997 293° West 172 198 12,500 1,200 Climbing Washington Center
02:28PM 39.3725 -77.1381 321° Northwest 166 191 13,600 1,080 Climbing Washington Center
02:29PM 39.4094 -77.1817 318° Northwest 166 191 14,700 1,080 Climbing Washington Center
02:30PM 39.4464 -77.2256 317° Northwest 172 198 15,800 1,020 Climbing Washington Center
02:31PM 39.4811 -77.2694 316° Northwest 177 204 16,800 900 Climbing Washington Center
02:32PM 39.5053 -77.3236 300° West 177 204 17,700 480 Climbing Washington Center
02:33PM 39.5294 -77.3836 298° West 183 211 17,800 120 Climbing Washington Center
02:34PM 39.5578 -77.4489 299° West 189 217 18,000 60 Climbing Washington Center
02:35PM 39.5900 -77.5222 300° West 217 250 18,000  Level Washington Center
02:36PM 39.6239 -77.6014 299° West 238 274 18,000  Level Washington Center
02:37PM 39.6581 -77.6806 299° West 250 288 18,000  Level Washington Center
02:38PM 39.6942 -77.7625 300° West 250 288 18,000  Level Washington Center
02:40PM 39.7739 -77.9386 301° West 252 290 18,000  Level Cleveland Center
02:41PM 39.8069 -78.0211 298° West 257 296 18,000  Level Cleveland Center
02:42PM 39.8422 -78.1036 299° West 262 302 18,000  Level Cleveland Center
02:43PM 39.8894 -78.1722 312° West 262 302 18,000  Level Cleveland Center
02:44PM 39.9347 -78.2439 310° West 262 302 18,000  Level Cleveland Center
02:45PM 39.9800 -78.3181 309° West 262 302 18,000  Level Cleveland Center
02:46PM 40.0272 -78.3925 310° West 267 307 18,000  Level Cleveland Center
02:47PM 40.0744 -78.4642 311° West 267 307 18,000  Level Cleveland Center
02:48PM 40.1217 -78.5331 312° West 267 307 18,000  Level Cleveland Center
02:49PM 40.1667 -78.6053 309° West 267 307 18,000  Level Cleveland Center
02:50PM 40.2139 -78.6772 311° West 267 307 18,000  Level Cleveland Center
02:51PM 40.2589 -78.7494 309° West 267 307 18,000  Level Cleveland Center
02:52PM 40.3058 -78.8217 310° West 267 307 18,000  Level Cleveland Center
02:53PM 40.3508 -78.8967 308° West 267 307 18,000  Level Cleveland Center
02:54PM 40.3914 -78.9719 305° West 267 307 18,000  Level Cleveland Center
02:55PM 40.4361 -79.0472 308° West 267 307 18,000  Level Cleveland Center
02:56PM 40.4789 -79.1228 307° West 267 307 18,000  Level Cleveland Center
02:57PM 40.5194 -79.1983 305° West 261 300 18,000  Level Cleveland Center
02:58PM 40.5619 -79.2739 307° West 261 300 18,000  Level Cleveland Center
02:59PM 40.6067 -79.3497 308° West 261 300 18,000  Level Cleveland Center
03:01PM 40.6917 -79.5014 307° West 261 300 18,000  Level Cleveland Center
03:02PM 40.7339 -79.5775 306° West 261 300 18,000  Level Cleveland Center
03:03PM 40.7764 -79.6536 306° West 261 300 18,000  Level Cleveland Center
03:04PM 40.8186 -79.7297 306° West 261 300 18,000  Level Cleveland Center
03:05PM 40.8608 -79.8089 305° West 261 300 18,100  Climbing Cleveland Center
03:06PM 40.9031 -79.8825 307° West 261 300 18,000 -60 Descending Cleveland Center
03:07PM 40.9453 -79.9592 306° West 261 300 18,000  Level Cleveland Center
03:08PM 40.9872 -80.0386 305° West 261 300 18,000  Level Cleveland Center
03:09PM 41.0294 -80.1181 305° West 261 300 18,000  Level Cleveland Center
03:10PM 41.0714 -80.1947 306° West 261 300 18,000  Level Cleveland Center
03:11PM 41.1153 -80.2744 306° West 261 300 18,000  Level Cleveland Center
03:12PM 41.1614 -80.3597 306° West 261 300 18,000  Level Cleveland Center
03:13PM 41.1989 -80.4314 305° West 261 300 18,000 -300 Level Cleveland Center
03:14PM 41.2428 -80.5142 305° West 266 306 17,500 -840 Descending Cleveland Center
03:15PM 41.2889 -80.5969 307° West 271 312 16,400 -1,260 Descending Cleveland Center
03:16PM 41.3344 -80.6828 305° West 283 326 15,000 -1,500 Descending Cleveland Center
03:18PM 41.3906 -80.8350 296° West 283 326 12,800 -1,440 Descending Cleveland Center
03:18PM 41.4050 -80.8711 298° West 283 326 12,200 -1,380 Descending Cleveland Center
03:19PM 41.4278 -80.9292 298° West 284 327 11,400 -1,440 Descending Cleveland Center
03:19PM 41.4403 -80.9653 295° West 278 320 10,800 -1,380 Descending Cleveland Center
03:20PM 41.4589 -81.0208 294° West 276 318 10,000 -1,440 Descending Cleveland Center
03:20PM 41.4775 -81.0625 301° West 278 320 9,400 -1,020 Descending Cleveland Center
03:21PM 41.4961 -81.1100 298° West 274 315 9,000 -420 Descending Cleveland Center
03:21PM 41.5125 -81.1544 296° West 278 320 9,000  Level Cleveland Center
03:22PM 41.5081 -81.2042 263° West 262 302 9,000  Level Cleveland Center
03:22PM 41.5056 -81.2486 266° West 258 297 9,000  Level Cleveland Center
03:23PM 41.4969 -81.2983 257° West 259 298 9,000  Level Cleveland Center
03:23PM 41.4925 -81.3428 262° West 253 291 9,000 -540 Level Cleveland Center
03:24PM 41.4839 -81.4008 259° West 264 304 8,500 -840 Descending Cleveland Center
03:24PM 41.4794 -81.4394 261° West 258 297 8,200 -900 Descending Cleveland Center
03:25PM 41.4706 -81.5031 259° West 278 320 7,600 -900 Descending Cleveland Center
03:25PM 41.4661 -81.5392 261° West 270 311 7,300 -600 Descending Cleveland Center
03:26PM 41.4511 -81.5969 251° West 266 306 7,000 -300 Descending Cleveland Center
03:26PM 41.4422 -81.6331 252° West 275 316 7,000  Level Cleveland Center
03:27PM 41.4253 -81.6853 247° West 257 296 7,000  Level Cleveland Center
03:28PM 41.3889 -81.7733 241° Southwest 256 295 7,000 -540 Level Cleveland Center
03:29PM 41.3403 -81.8414 226° Southwest 259 298 6,000 -1,140 Descending Cleveland Center
03:30PM 41.3019 -81.9153 235° Southwest 250 288 4,700 -1,440 Descending Cleveland Center
03:31PM 41.3431 -81.9633 319° Northwest 207 238 3,100 -1,440 Descending Cleveland Center
03:32PM 41.3664 -81.9278 49° Northeast 98 113 1,900 -960 Descending Cleveland Center
03:33PM 41.3875 -81.8950 49° Northeast 111 128 1,200 -720 Descending Cleveland Center